sensor_id;sensor_type;location;lat;lon;timestamp;pressure;altitude;pressure_sealevel;temperature
73894;BMP280;62699;50.534;12.784;2022-09-17T00:04:27;95591.28;;;9.15
73894;BMP280;62699;50.534;12.784;2022-09-17T00:09:45;95585.88;;;9.21
73894;BMP280;62699;50.534;12.784;2022-09-17T00:15:05;95592.00;;;9.16
73894;BMP280;62699;50.534;12.784;2022-09-17T00:20:25;95595.72;;;9.43
73894;BMP280;62699;50.534;12.784;2022-09-17T00:25:45;95581.81;;;9.39
73894;BMP280;62699;50.534;12.784;2022-09-17T00:31:08;95577.81;;;9.51
73894;BMP280;62699;50.534;12.784;2022-09-17T00:36:28;95586.47;;;9.38
73894;BMP280;62699;50.534;12.784;2022-09-17T00:41:47;95596.41;;;9.49
73894;BMP280;62699;50.534;12.784;2022-09-17T00:47:12;95585.97;;;9.40
73894;BMP280;62699;50.534;12.784;2022-09-17T00:52:35;95586.13;;;9.53
73894;BMP280;62699;50.534;12.784;2022-09-17T00:57:58;95594.84;;;9.59
73894;BMP280;62699;50.534;12.784;2022-09-17T01:03:18;95590.78;;;9.47
73894;BMP280;62699;50.534;12.784;2022-09-17T01:32:11;95575.25;;;9.64
73894;BMP280;62699;50.534;12.784;2022-09-17T01:38:17;95583.09;;;9.62
73894;BMP280;62699;50.534;12.784;2022-09-17T01:43:29;95578.06;;;9.53
73894;BMP280;62699;50.534;12.784;2022-09-17T01:48:53;95577.09;;;9.50
73894;BMP280;62699;50.534;12.784;2022-09-17T01:54:22;95579.72;;;9.56
73894;BMP280;62699;50.534;12.784;2022-09-17T01:59:48;95575.22;;;9.70
73894;BMP280;62699;50.534;12.784;2022-09-17T02:05:15;95583.69;;;9.55
73894;BMP280;62699;50.534;12.784;2022-09-17T02:10:42;95592.41;;;9.61
73894;BMP280;62699;50.534;12.784;2022-09-17T02:16:16;95580.50;;;9.51
73894;BMP280;62699;50.534;12.784;2022-09-17T02:21:44;95577.91;;;9.40
73894;BMP280;62699;50.534;12.784;2022-09-17T02:32:31;95585.47;;;9.41
73894;BMP280;62699;50.534;12.784;2022-09-17T02:37:51;95582.84;;;9.36
73894;BMP280;62699;50.534;12.784;2022-09-17T03:00:12;95558.88;;;9.08
73894;BMP280;62699;50.534;12.784;2022-09-17T03:05:33;95552.31;;;9.03
73894;BMP280;62699;50.534;12.784;2022-09-17T03:10:54;95552.97;;;9.15
73894;BMP280;62699;50.534;12.784;2022-09-17T03:16:13;95550.88;;;9.02
73894;BMP280;62699;50.534;12.784;2022-09-17T03:21:33;95551.59;;;9.33
73894;BMP280;62699;50.534;12.784;2022-09-17T03:26:52;95556.09;;;9.25
73894;BMP280;62699;50.534;12.784;2022-09-17T03:32:11;95559.63;;;9.08
73894;BMP280;62699;50.534;12.784;2022-09-17T03:37:30;95557.00;;;8.97
73894;BMP280;62699;50.534;12.784;2022-09-17T03:42:49;95569.78;;;9.15
73894;BMP280;62699;50.534;12.784;2022-09-17T03:48:08;95559.66;;;9.33
73894;BMP280;62699;50.534;12.784;2022-09-17T03:53:28;95561.28;;;9.11
73894;BMP280;62699;50.534;12.784;2022-09-17T03:58:47;95560.72;;;9.18
73894;BMP280;62699;50.534;12.784;2022-09-17T04:04:07;95560.06;;;9.12
73894;BMP280;62699;50.534;12.784;2022-09-17T04:09:26;95553.97;;;9.12
73894;BMP280;62699;50.534;12.784;2022-09-17T04:14:46;95550.91;;;8.97
73894;BMP280;62699;50.534;12.784;2022-09-17T04:20:06;95553.00;;;9.09
73894;BMP280;62699;50.534;12.784;2022-09-17T04:25:26;95554.13;;;8.90
73894;BMP280;62699;50.534;12.784;2022-09-17T04:30:47;95549.13;;;9.05
73894;BMP280;62699;50.534;12.784;2022-09-17T04:36:07;95542.59;;;8.95
73894;BMP280;62699;50.534;12.784;2022-09-17T04:41:26;95533.53;;;9.03
73894;BMP280;62699;50.534;12.784;2022-09-17T04:46:47;95534.63;;;9.19
73894;BMP280;62699;50.534;12.784;2022-09-17T04:52:06;95533.13;;;9.23
73894;BMP280;62699;50.534;12.784;2022-09-17T04:57:26;95537.28;;;9.49
73894;BMP280;62699;50.534;12.784;2022-09-17T05:02:47;95548.25;;;9.27
73894;BMP280;62699;50.534;12.784;2022-09-17T05:08:07;95544.50;;;9.05
73894;BMP280;62699;50.534;12.784;2022-09-17T05:13:43;95555.44;;;9.13
73894;BMP280;62699;50.534;12.784;2022-09-17T05:19:03;95543.06;;;9.04
73894;BMP280;62699;50.534;12.784;2022-09-17T05:24:22;95546.69;;;9.37
73894;BMP280;62699;50.534;12.784;2022-09-17T05:29:42;95546.91;;;9.39
73894;BMP280;62699;50.534;12.784;2022-09-17T05:35:04;95542.13;;;9.26
73894;BMP280;62699;50.534;12.784;2022-09-17T05:40:23;95528.25;;;9.52
73894;BMP280;62699;50.534;12.784;2022-09-17T05:45:43;95535.44;;;9.87
73894;BMP280;62699;50.534;12.784;2022-09-17T05:51:02;95541.78;;;9.65
73894;BMP280;62699;50.534;12.784;2022-09-17T05:56:21;95553.47;;;9.67
73894;BMP280;62699;50.534;12.784;2022-09-17T06:01:43;95560.47;;;9.52
73894;BMP280;62699;50.534;12.784;2022-09-17T06:07:05;95568.72;;;9.30
73894;BMP280;62699;50.534;12.784;2022-09-17T06:12:28;95556.91;;;9.44
73894;BMP280;62699;50.534;12.784;2022-09-17T06:17:47;95560.19;;;9.26
73894;BMP280;62699;50.534;12.784;2022-09-17T06:23:06;95572.94;;;9.55
73894;BMP280;62699;50.534;12.784;2022-09-17T06:28:26;95566.84;;;9.49
73894;BMP280;62699;50.534;12.784;2022-09-17T06:33:45;95561.72;;;9.51
73894;BMP280;62699;50.534;12.784;2022-09-17T06:39:06;95571.06;;;9.39
73894;BMP280;62699;50.534;12.784;2022-09-17T06:44:25;95566.69;;;9.65
73894;BMP280;62699;50.534;12.784;2022-09-17T06:49:44;95576.34;;;9.50
73894;BMP280;62699;50.534;12.784;2022-09-17T06:55:04;95576.28;;;9.31
73894;BMP280;62699;50.534;12.784;2022-09-17T07:00:24;95572.00;;;9.17
73894;BMP280;62699;50.534;12.784;2022-09-17T07:05:43;95581.94;;;9.28
73894;BMP280;62699;50.534;12.784;2022-09-17T07:11:02;95590.38;;;9.37
73894;BMP280;62699;50.534;12.784;2022-09-17T07:16:23;95596.78;;;9.34
73894;BMP280;62699;50.534;12.784;2022-09-17T07:21:41;95615.59;;;9.29
73894;BMP280;62699;50.534;12.784;2022-09-17T07:27:01;95620.97;;;9.29
73894;BMP280;62699;50.534;12.784;2022-09-17T07:32:21;95632.34;;;9.46
73894;BMP280;62699;50.534;12.784;2022-09-17T07:37:40;95632.53;;;9.48
73894;BMP280;62699;50.534;12.784;2022-09-17T07:42:59;95641.81;;;9.47
73894;BMP280;62699;50.534;12.784;2022-09-17T07:48:21;95659.09;;;9.57
73894;BMP280;62699;50.534;12.784;2022-09-17T07:53:40;95664.63;;;9.70
73894;BMP280;62699;50.534;12.784;2022-09-17T07:59:01;95659.91;;;9.76
73894;BMP280;62699;50.534;12.784;2022-09-17T08:04:20;95664.31;;;9.79
73894;BMP280;62699;50.534;12.784;2022-09-17T08:09:40;95670.47;;;9.74
73894;BMP280;62699;50.534;12.784;2022-09-17T08:14:59;95670.72;;;9.71
73894;BMP280;62699;50.534;12.784;2022-09-17T08:20:18;95694.03;;;9.87
73894;BMP280;62699;50.534;12.784;2022-09-17T08:25:38;95702.53;;;9.96
73894;BMP280;62699;50.534;12.784;2022-09-17T08:31:06;95698.81;;;9.99
73894;BMP280;62699;50.534;12.784;2022-09-17T08:36:26;95703.88;;;10.33
73894;BMP280;62699;50.534;12.784;2022-09-17T08:42:10;95712.38;;;10.85
73894;BMP280;62699;50.534;12.784;2022-09-17T08:47:36;95715.91;;;11.31
73894;BMP280;62699;50.534;12.784;2022-09-17T09:04:26;95705.06;;;11.36
73894;BMP280;62699;50.534;12.784;2022-09-17T09:09:52;95708.88;;;12.05
73894;BMP280;62699;50.534;12.784;2022-09-17T09:15:18;95706.25;;;12.91
73894;BMP280;62699;50.534;12.784;2022-09-17T09:20:53;95714.06;;;12.81
73894;BMP280;62699;50.534;12.784;2022-09-17T09:26:19;95703.16;;;13.42
73894;BMP280;62699;50.534;12.784;2022-09-17T09:37:38;95706.22;;;12.57
73894;BMP280;62699;50.534;12.784;2022-09-17T09:43:10;95715.50;;;12.82
73894;BMP280;62699;50.534;12.784;2022-09-17T09:55:09;95710.34;;;12.58
73894;BMP280;62699;50.534;12.784;2022-09-17T10:00:35;95708.72;;;12.16
73894;BMP280;62699;50.534;12.784;2022-09-17T10:06:06;95709.69;;;12.00
73894;BMP280;62699;50.534;12.784;2022-09-17T10:11:28;95710.53;;;12.60
73894;BMP280;62699;50.534;12.784;2022-09-17T10:16:48;95710.56;;;12.34
73894;BMP280;62699;50.534;12.784;2022-09-17T10:22:29;95724.38;;;11.72
73894;BMP280;62699;50.534;12.784;2022-09-17T10:27:50;95718.72;;;12.02
73894;BMP280;62699;50.534;12.784;2022-09-17T10:38:40;95712.03;;;12.35
73894;BMP280;62699;50.534;12.784;2022-09-17T10:44:16;95712.19;;;12.11
73894;BMP280;62699;50.534;12.784;2022-09-17T10:49:39;95696.22;;;12.13
73894;BMP280;62699;50.534;12.784;2022-09-17T10:55:39;95712.28;;;11.60
73894;BMP280;62699;50.534;12.784;2022-09-17T11:24:35;95747.97;;;10.54
73894;BMP280;62699;50.534;12.784;2022-09-17T11:35:18;95737.91;;;10.97
73894;BMP280;62699;50.534;12.784;2022-09-17T11:40:45;95731.00;;;11.21
73894;BMP280;62699;50.534;12.784;2022-09-17T11:46:21;95730.56;;;11.35
73894;BMP280;62699;50.534;12.784;2022-09-17T11:51:49;95726.59;;;11.55
73894;BMP280;62699;50.534;12.784;2022-09-17T11:57:21;95730.53;;;11.54
73894;BMP280;62699;50.534;12.784;2022-09-17T12:02:52;95749.34;;;11.41
73894;BMP280;62699;50.534;12.784;2022-09-17T12:08:18;95775.00;;;10.13
73894;BMP280;62699;50.534;12.784;2022-09-17T12:14:04;95766.06;;;9.64
73894;BMP280;62699;50.534;12.784;2022-09-17T12:19:28;95748.97;;;11.31
73894;BMP280;62699;50.534;12.784;2022-09-17T12:24:50;95734.22;;;11.51
73894;BMP280;62699;50.534;12.784;2022-09-17T12:30:13;95724.47;;;12.25
73894;BMP280;62699;50.534;12.784;2022-09-17T12:41:41;95701.97;;;13.71
73894;BMP280;62699;50.534;12.784;2022-09-17T13:03:41;95689.81;;;12.29
73894;BMP280;62699;50.534;12.784;2022-09-17T13:20:22;95668.66;;;14.04
73894;BMP280;62699;50.534;12.784;2022-09-17T13:25:50;95657.75;;;14.61
73894;BMP280;62699;50.534;12.784;2022-09-17T13:31:19;95665.72;;;14.30
73894;BMP280;62699;50.534;12.784;2022-09-17T13:36:42;95655.06;;;14.84
73894;BMP280;62699;50.534;12.784;2022-09-17T13:47:55;95630.38;;;15.70
73894;BMP280;62699;50.534;12.784;2022-09-17T13:58:35;95651.00;;;13.82
73894;BMP280;62699;50.534;12.784;2022-09-17T14:03:55;95661.34;;;12.54
73894;BMP280;62699;50.534;12.784;2022-09-17T14:09:31;95663.00;;;13.25
73894;BMP280;62699;50.534;12.784;2022-09-17T14:14:51;95662.25;;;13.04
73894;BMP280;62699;50.534;12.784;2022-09-17T14:20:09;95663.94;;;12.60
73894;BMP280;62699;50.534;12.784;2022-09-17T14:25:49;95661.31;;;12.67
73894;BMP280;62699;50.534;12.784;2022-09-17T14:31:12;95660.44;;;12.85
73894;BMP280;62699;50.534;12.784;2022-09-17T14:36:37;95662.66;;;12.74
73894;BMP280;62699;50.534;12.784;2022-09-17T14:41:57;95681.25;;;12.51
73894;BMP280;62699;50.534;12.784;2022-09-17T14:47:19;95679.09;;;11.52
73894;BMP280;62699;50.534;12.784;2022-09-17T14:52:38;95677.88;;;11.02
73894;BMP280;62699;50.534;12.784;2022-09-17T14:57:59;95683.09;;;11.14
73894;BMP280;62699;50.534;12.784;2022-09-17T15:09:29;95663.22;;;12.46
73894;BMP280;62699;50.534;12.784;2022-09-17T15:14:48;95664.88;;;11.83
73894;BMP280;62699;50.534;12.784;2022-09-17T15:20:09;95661.56;;;12.56
73894;BMP280;62699;50.534;12.784;2022-09-17T15:25:34;95657.84;;;11.93
73894;BMP280;62699;50.534;12.784;2022-09-17T15:30:55;95660.88;;;12.16
73894;BMP280;62699;50.534;12.784;2022-09-17T15:36:17;95668.25;;;12.29
73894;BMP280;62699;50.534;12.784;2022-09-17T15:41:39;95666.00;;;11.88
73894;BMP280;62699;50.534;12.784;2022-09-17T15:47:34;95665.69;;;11.65
73894;BMP280;62699;50.534;12.784;2022-09-17T15:53:24;95661.56;;;12.30
73894;BMP280;62699;50.534;12.784;2022-09-17T16:04:08;95657.41;;;11.76
73894;BMP280;62699;50.534;12.784;2022-09-17T16:09:40;95659.19;;;11.87
73894;BMP280;62699;50.534;12.784;2022-09-17T16:15:00;95652.09;;;11.71
73894;BMP280;62699;50.534;12.784;2022-09-17T16:20:22;95669.19;;;11.73
73894;BMP280;62699;50.534;12.784;2022-09-17T16:25:42;95673.69;;;11.84
73894;BMP280;62699;50.534;12.784;2022-09-17T16:31:01;95674.00;;;11.80
73894;BMP280;62699;50.534;12.784;2022-09-17T16:36:34;95678.59;;;11.54
73894;BMP280;62699;50.534;12.784;2022-09-17T16:41:53;95684.72;;;11.04
73894;BMP280;62699;50.534;12.784;2022-09-17T16:47:13;95679.47;;;11.11
73894;BMP280;62699;50.534;12.784;2022-09-17T16:52:52;95689.81;;;11.26
73894;BMP280;62699;50.534;12.784;2022-09-17T16:58:12;95681.59;;;10.81
73894;BMP280;62699;50.534;12.784;2022-09-17T17:03:31;95699.53;;;10.05
73894;BMP280;62699;50.534;12.784;2022-09-17T17:08:51;95753.00;;;9.79
73894;BMP280;62699;50.534;12.784;2022-09-17T17:14:10;95720.59;;;8.73
73894;BMP280;62699;50.534;12.784;2022-09-17T17:19:30;95712.94;;;8.99
73894;BMP280;62699;50.534;12.784;2022-09-17T17:24:49;95711.50;;;10.04
73894;BMP280;62699;50.534;12.784;2022-09-17T17:30:10;95714.47;;;10.01
73894;BMP280;62699;50.534;12.784;2022-09-17T17:35:37;95720.53;;;10.07
73894;BMP280;62699;50.534;12.784;2022-09-17T17:41:09;95717.19;;;10.25
73894;BMP280;62699;50.534;12.784;2022-09-17T17:46:27;95713.25;;;10.26
73894;BMP280;62699;50.534;12.784;2022-09-17T17:51:47;95713.28;;;9.96
73894;BMP280;62699;50.534;12.784;2022-09-17T17:57:06;95712.59;;;9.90
73894;BMP280;62699;50.534;12.784;2022-09-17T18:02:26;95725.91;;;9.42
73894;BMP280;62699;50.534;12.784;2022-09-17T18:07:45;95718.84;;;9.74
73894;BMP280;62699;50.534;12.784;2022-09-17T18:13:04;95714.47;;;9.71
73894;BMP280;62699;50.534;12.784;2022-09-17T18:18:24;95710.44;;;9.83
73894;BMP280;62699;50.534;12.784;2022-09-17T18:23:45;95715.88;;;10.07
73894;BMP280;62699;50.534;12.784;2022-09-17T18:35:05;95716.56;;;10.14
73894;BMP280;62699;50.534;12.784;2022-09-17T18:40:24;95718.22;;;10.17
73894;BMP280;62699;50.534;12.784;2022-09-17T18:45:54;95732.06;;;10.02
73894;BMP280;62699;50.534;12.784;2022-09-17T18:51:13;95731.69;;;9.51
73894;BMP280;62699;50.534;12.784;2022-09-17T18:56:33;95732.97;;;9.80
73894;BMP280;62699;50.534;12.784;2022-09-17T19:01:53;95737.25;;;9.59
73894;BMP280;62699;50.534;12.784;2022-09-17T19:07:13;95743.31;;;9.71
73894;BMP280;62699;50.534;12.784;2022-09-17T19:12:32;95739.19;;;9.64
73894;BMP280;62699;50.534;12.784;2022-09-17T19:17:52;95738.91;;;9.73
73894;BMP280;62699;50.534;12.784;2022-09-17T19:23:11;95737.53;;;9.14
73894;BMP280;62699;50.534;12.784;2022-09-17T19:28:31;95729.50;;;9.09
73894;BMP280;62699;50.534;12.784;2022-09-17T19:34:05;95734.69;;;8.90
73894;BMP280;62699;50.534;12.784;2022-09-17T19:39:24;95737.41;;;8.79
73894;BMP280;62699;50.534;12.784;2022-09-17T19:44:43;95734.50;;;8.66
73894;BMP280;62699;50.534;12.784;2022-09-17T19:50:03;95745.69;;;8.81
73894;BMP280;62699;50.534;12.784;2022-09-17T19:55:22;95749.19;;;8.59
73894;BMP280;62699;50.534;12.784;2022-09-17T20:00:42;95737.94;;;8.55
73894;BMP280;62699;50.534;12.784;2022-09-17T20:06:04;95736.50;;;8.49
73894;BMP280;62699;50.534;12.784;2022-09-17T20:11:25;95738.41;;;8.70
73894;BMP280;62699;50.534;12.784;2022-09-17T20:16:44;95722.56;;;8.61
73894;BMP280;62699;50.534;12.784;2022-09-17T20:22:05;95740.16;;;8.57
73894;BMP280;62699;50.534;12.784;2022-09-17T20:27:24;95740.59;;;8.72
73894;BMP280;62699;50.534;12.784;2022-09-17T20:32:43;95734.78;;;8.51
73894;BMP280;62699;50.534;12.784;2022-09-17T20:38:02;95722.84;;;8.47
73894;BMP280;62699;50.534;12.784;2022-09-17T20:43:22;95732.84;;;8.41
73894;BMP280;62699;50.534;12.784;2022-09-17T20:48:42;95724.31;;;8.48
73894;BMP280;62699;50.534;12.784;2022-09-17T20:54:03;95719.72;;;8.37
73894;BMP280;62699;50.534;12.784;2022-09-17T20:59:24;95722.88;;;8.41
73894;BMP280;62699;50.534;12.784;2022-09-17T21:11:04;95711.88;;;8.45
73894;BMP280;62699;50.534;12.784;2022-09-17T21:16:23;95714.53;;;8.56
73894;BMP280;62699;50.534;12.784;2022-09-17T21:28:04;95713.34;;;8.46
73894;BMP280;62699;50.534;12.784;2022-09-17T21:33:48;95713.75;;;8.77
73894;BMP280;62699;50.534;12.784;2022-09-17T21:39:14;95701.84;;;8.62
73894;BMP280;62699;50.534;12.784;2022-09-17T21:44:33;95689.19;;;8.46
73894;BMP280;62699;50.534;12.784;2022-09-17T21:49:53;95697.69;;;8.66
73894;BMP280;62699;50.534;12.784;2022-09-17T21:55:22;95697.75;;;8.50
73894;BMP280;62699;50.534;12.784;2022-09-17T22:00:42;95691.91;;;8.34
73894;BMP280;62699;50.534;12.784;2022-09-17T22:06:12;95692.59;;;8.52
73894;BMP280;62699;50.534;12.784;2022-09-17T22:11:34;95705.53;;;8.53
73894;BMP280;62699;50.534;12.784;2022-09-17T22:16:55;95702.63;;;8.46
73894;BMP280;62699;50.534;12.784;2022-09-17T22:22:15;95694.13;;;8.14
73894;BMP280;62699;50.534;12.784;2022-09-17T22:27:48;95693.66;;;8.15
73894;BMP280;62699;50.534;12.784;2022-09-17T22:33:14;95692.69;;;8.07
73894;BMP280;62699;50.534;12.784;2022-09-17T22:38:34;95692.19;;;8.14
73894;BMP280;62699;50.534;12.784;2022-09-17T22:43:56;95686.59;;;8.07
73894;BMP280;62699;50.534;12.784;2022-09-17T22:49:16;95687.34;;;8.02
73894;BMP280;62699;50.534;12.784;2022-09-17T22:54:35;95701.94;;;7.84
73894;BMP280;62699;50.534;12.784;2022-09-17T22:59:58;95706.81;;;7.85
73894;BMP280;62699;50.534;12.784;2022-09-17T23:05:17;95697.31;;;7.84
73894;BMP280;62699;50.534;12.784;2022-09-17T23:10:36;95691.22;;;7.84
73894;BMP280;62699;50.534;12.784;2022-09-17T23:16:04;95700.00;;;7.79
73894;BMP280;62699;50.534;12.784;2022-09-17T23:21:23;95698.28;;;7.65
73894;BMP280;62699;50.534;12.784;2022-09-17T23:26:43;95694.63;;;7.57
73894;BMP280;62699;50.534;12.784;2022-09-17T23:32:02;95684.66;;;7.68
73894;BMP280;62699;50.534;12.784;2022-09-17T23:37:21;95679.81;;;7.72
73894;BMP280;62699;50.534;12.784;2022-09-17T23:42:40;95685.13;;;7.67
73894;BMP280;62699;50.534;12.784;2022-09-17T23:47:59;95683.44;;;7.86
73894;BMP280;62699;50.534;12.784;2022-09-17T23:53:19;95691.94;;;7.68
73894;BMP280;62699;50.534;12.784;2022-09-17T23:58:39;95685.38;;;7.63
